sensor_id;sensor_type;location;lat;lon;timestamp;temperature;humidity
4103;DHT22;2065;49.790;9.620;2022-07-18T00:06:46;24.00;37.50
4103;DHT22;2065;49.790;9.620;2022-07-18T00:09:13;23.90;37.50
4103;DHT22;2065;49.790;9.620;2022-07-18T00:11:40;23.90;37.10
4103;DHT22;2065;49.790;9.620;2022-07-18T00:14:07;23.80;36.80
4103;DHT22;2065;49.790;9.620;2022-07-18T00:16:34;23.80;37.00
4103;DHT22;2065;49.790;9.620;2022-07-18T00:19:02;23.70;37.00
4103;DHT22;2065;49.790;9.620;2022-07-18T00:33:56;23.40;36.50
4103;DHT22;2065;49.790;9.620;2022-07-18T00:40:31;23.30;36.90
4103;DHT22;2065;49.790;9.620;2022-07-18T00:42:58;23.20;37.40
4103;DHT22;2065;49.790;9.620;2022-07-18T00:45:25;23.20;37.30
4103;DHT22;2065;49.790;9.620;2022-07-18T00:47:53;23.20;37.50
4103;DHT22;2065;49.790;9.620;2022-07-18T00:50:22;23.20;37.60
4103;DHT22;2065;49.790;9.620;2022-07-18T00:52:50;23.10;37.40
4103;DHT22;2065;49.790;9.620;2022-07-18T00:55:17;23.10;37.60
4103;DHT22;2065;49.790;9.620;2022-07-18T00:57:44;23.10;37.70
4103;DHT22;2065;49.790;9.620;2022-07-18T01:00:13;23.10;37.60
4103;DHT22;2065;49.790;9.620;2022-07-18T01:02:58;23.10;38.00
4103;DHT22;2065;49.790;9.620;2022-07-18T01:05:27;23.00;38.10
4103;DHT22;2065;49.790;9.620;2022-07-18T01:08:44;22.90;38.30
4103;DHT22;2065;49.790;9.620;2022-07-18T01:12:00;22.90;38.20
4103;DHT22;2065;49.790;9.620;2022-07-18T01:18:36;22.80;38.80
4103;DHT22;2065;49.790;9.620;2022-07-18T01:29:18;22.60;39.80
4103;DHT22;2065;49.790;9.620;2022-07-18T01:31:45;22.40;41.30
4103;DHT22;2065;49.790;9.620;2022-07-18T01:34:12;22.40;41.10
4103;DHT22;2065;49.790;9.620;2022-07-18T01:41:12;22.30;41.40
4103;DHT22;2065;49.790;9.620;2022-07-18T01:43:40;22.30;41.80
4103;DHT22;2065;49.790;9.620;2022-07-18T01:46:10;22.30;41.90
4103;DHT22;2065;49.790;9.620;2022-07-18T01:56:51;22.20;41.80
4103;DHT22;2065;49.790;9.620;2022-07-18T01:59:19;22.10;42.30
4103;DHT22;2065;49.790;9.620;2022-07-18T02:01:47;22.10;42.50
4103;DHT22;2065;49.790;9.620;2022-07-18T02:08:22;22.00;42.20
4103;DHT22;2065;49.790;9.620;2022-07-18T02:10:49;21.90;41.80
4103;DHT22;2065;49.790;9.620;2022-07-18T02:13:16;21.90;41.30
4103;DHT22;2065;49.790;9.620;2022-07-18T02:15:45;21.90;40.40
4103;DHT22;2065;49.790;9.620;2022-07-18T02:18:14;21.90;40.40
4103;DHT22;2065;49.790;9.620;2022-07-18T02:29:44;21.70;40.40
4103;DHT22;2065;49.790;9.620;2022-07-18T02:32:11;21.60;40.50
4103;DHT22;2065;49.790;9.620;2022-07-18T02:34:40;21.60;40.40
4103;DHT22;2065;49.790;9.620;2022-07-18T02:37:07;21.50;40.90
4103;DHT22;2065;49.790;9.620;2022-07-18T02:39:34;21.50;40.60
4103;DHT22;2065;49.790;9.620;2022-07-18T02:42:01;21.50;41.00
4103;DHT22;2065;49.790;9.620;2022-07-18T02:44:28;21.50;41.20
4103;DHT22;2065;49.790;9.620;2022-07-18T02:46:55;21.40;41.60
4103;DHT22;2065;49.790;9.620;2022-07-18T02:49:22;21.40;41.70
4103;DHT22;2065;49.790;9.620;2022-07-18T03:08:24;21.10;43.40
4103;DHT22;2065;49.790;9.620;2022-07-18T03:10:51;21.10;43.80
4103;DHT22;2065;49.790;9.620;2022-07-18T03:13:18;21.00;43.90
4103;DHT22;2065;49.790;9.620;2022-07-18T03:15:45;21.00;43.70
4103;DHT22;2065;49.790;9.620;2022-07-18T03:18:12;21.00;43.70
4103;DHT22;2065;49.790;9.620;2022-07-18T03:29:20;20.80;44.00
4103;DHT22;2065;49.790;9.620;2022-07-18T03:31:47;20.70;44.10
4103;DHT22;2065;49.790;9.620;2022-07-18T03:42:28;20.50;44.70
4103;DHT22;2065;49.790;9.620;2022-07-18T03:44:57;20.40;45.00
4103;DHT22;2065;49.790;9.620;2022-07-18T03:47:24;20.40;45.10
4103;DHT22;2065;49.790;9.620;2022-07-18T03:49:51;20.50;45.00
4103;DHT22;2065;49.790;9.620;2022-07-18T04:03:52;20.40;44.60
4103;DHT22;2065;49.790;9.620;2022-07-18T04:06:19;20.40;45.50
4103;DHT22;2065;49.790;9.620;2022-07-18T04:08:46;20.30;45.90
4103;DHT22;2065;49.790;9.620;2022-07-18T04:12:03;20.30;45.80
4103;DHT22;2065;49.790;9.620;2022-07-18T04:14:30;20.30;45.70
4103;DHT22;2065;49.790;9.620;2022-07-18T04:16:57;20.40;45.50
4103;DHT22;2065;49.790;9.620;2022-07-18T04:19:25;20.30;45.20
4103;DHT22;2065;49.790;9.620;2022-07-18T04:29:18;20.30;45.20
4103;DHT22;2065;49.790;9.620;2022-07-18T04:31:45;20.30;44.90
4103;DHT22;2065;49.790;9.620;2022-07-18T04:34:12;20.30;45.00
4103;DHT22;2065;49.790;9.620;2022-07-18T04:37:57;20.40;45.00
4103;DHT22;2065;49.790;9.620;2022-07-18T04:41:40;20.30;45.90
4103;DHT22;2065;49.790;9.620;2022-07-18T04:45:21;20.30;46.50
4103;DHT22;2065;49.790;9.620;2022-07-18T04:48:13;20.40;46.00
4103;DHT22;2065;49.790;9.620;2022-07-18T05:03:54;20.30;46.40
4103;DHT22;2065;49.790;9.620;2022-07-18T05:06:21;20.40;46.10
4103;DHT22;2065;49.790;9.620;2022-07-18T05:08:48;20.50;45.90
4103;DHT22;2065;49.790;9.620;2022-07-18T05:12:05;20.50;46.10
4103;DHT22;2065;49.790;9.620;2022-07-18T05:15:21;20.50;46.00
4103;DHT22;2065;49.790;9.620;2022-07-18T05:26:34;20.70;46.10
4103;DHT22;2065;49.790;9.620;2022-07-18T05:29:01;20.60;46.20
4103;DHT22;2065;49.790;9.620;2022-07-18T05:31:28;20.60;46.10
4103;DHT22;2065;49.790;9.620;2022-07-18T05:38:28;20.90;45.40
4103;DHT22;2065;49.790;9.620;2022-07-18T05:40:55;21.00;45.10
4103;DHT22;2065;49.790;9.620;2022-07-18T05:43:23;21.10;45.10
4103;DHT22;2065;49.790;9.620;2022-07-18T05:45:50;21.20;45.70
4103;DHT22;2065;49.790;9.620;2022-07-18T05:48:17;21.30;45.40
4103;DHT22;2065;49.790;9.620;2022-07-18T05:50:44;21.30;45.30
4103;DHT22;2065;49.790;9.620;2022-07-18T05:54:25;21.40;44.80
4103;DHT22;2065;49.790;9.620;2022-07-18T05:56:53;21.40;44.30
4103;DHT22;2065;49.790;9.620;2022-07-18T05:59:21;21.50;43.80
4103;DHT22;2065;49.790;9.620;2022-07-18T06:01:48;21.80;43.50
4103;DHT22;2065;49.790;9.620;2022-07-18T06:04:15;21.80;43.10
4103;DHT22;2065;49.790;9.620;2022-07-18T06:06:42;22.00;43.70
4103;DHT22;2065;49.790;9.620;2022-07-18T06:09:10;22.10;42.90
4103;DHT22;2065;49.790;9.620;2022-07-18T06:11:38;22.20;42.40
4103;DHT22;2065;49.790;9.620;2022-07-18T06:14:05;22.30;42.30
4103;DHT22;2065;49.790;9.620;2022-07-18T06:16:58;22.30;42.40
4103;DHT22;2065;49.790;9.620;2022-07-18T06:19:25;22.50;42.50
4103;DHT22;2065;49.790;9.620;2022-07-18T06:21:52;22.70;42.70
4103;DHT22;2065;49.790;9.620;2022-07-18T06:24:19;22.80;42.60
4103;DHT22;2065;49.790;9.620;2022-07-18T06:26:46;22.80;42.10
4103;DHT22;2065;49.790;9.620;2022-07-18T06:32:58;23.00;40.80
4103;DHT22;2065;49.790;9.620;2022-07-18T06:35:25;22.80;41.00
4103;DHT22;2065;49.790;9.620;2022-07-18T06:37:52;23.10;41.20
4103;DHT22;2065;49.790;9.620;2022-07-18T06:40:19;23.30;40.60
4103;DHT22;2065;49.790;9.620;2022-07-18T06:42:46;23.50;40.50
4103;DHT22;2065;49.790;9.620;2022-07-18T06:45:14;23.30;39.90
4103;DHT22;2065;49.790;9.620;2022-07-18T06:51:49;23.70;39.00
4103;DHT22;2065;49.790;9.620;2022-07-18T06:54:16;23.50;38.40
4103;DHT22;2065;49.790;9.620;2022-07-18T06:56:43;23.30;39.50
4103;DHT22;2065;49.790;9.620;2022-07-18T06:59:10;23.30;39.90
4103;DHT22;2065;49.790;9.620;2022-07-18T07:01:37;23.70;39.30
4103;DHT22;2065;49.790;9.620;2022-07-18T07:04:29;24.10;39.30
4103;DHT22;2065;49.790;9.620;2022-07-18T07:06:57;24.00;38.00
4103;DHT22;2065;49.790;9.620;2022-07-18T07:09:24;24.10;38.90
4103;DHT22;2065;49.790;9.620;2022-07-18T07:11:51;24.30;38.30
4103;DHT22;2065;49.790;9.620;2022-07-18T07:14:18;24.60;37.60
4103;DHT22;2065;49.790;9.620;2022-07-18T07:16:45;24.80;36.70
4103;DHT22;2065;49.790;9.620;2022-07-18T07:19:12;24.70;36.70
4103;DHT22;2065;49.790;9.620;2022-07-18T07:21:39;25.00;37.30
4103;DHT22;2065;49.790;9.620;2022-07-18T07:24:33;25.00;36.60
4103;DHT22;2065;49.790;9.620;2022-07-18T07:27:02;25.20;36.40
4103;DHT22;2065;49.790;9.620;2022-07-18T07:29:29;25.40;35.40
4103;DHT22;2065;49.790;9.620;2022-07-18T07:32:21;25.10;34.50
4103;DHT22;2065;49.790;9.620;2022-07-18T07:34:48;25.00;34.30
4103;DHT22;2065;49.790;9.620;2022-07-18T07:37:15;25.20;34.70
4103;DHT22;2065;49.790;9.620;2022-07-18T07:39:43;25.60;34.70
4103;DHT22;2065;49.790;9.620;2022-07-18T07:42:13;25.70;33.80
4103;DHT22;2065;49.790;9.620;2022-07-18T07:44:40;25.80;33.70
4103;DHT22;2065;49.790;9.620;2022-07-18T07:47:57;25.70;33.40
4103;DHT22;2065;49.790;9.620;2022-07-18T07:50:24;25.70;33.40
4103;DHT22;2065;49.790;9.620;2022-07-18T07:52:51;26.00;33.30
4103;DHT22;2065;49.790;9.620;2022-07-18T07:56:09;26.30;33.70
4103;DHT22;2065;49.790;9.620;2022-07-18T08:06:24;26.90;33.10
4103;DHT22;2065;49.790;9.620;2022-07-18T08:08:52;27.10;32.20
4103;DHT22;2065;49.790;9.620;2022-07-18T08:19:36;27.50;31.10
4103;DHT22;2065;49.790;9.620;2022-07-18T08:22:03;27.50;29.60
4103;DHT22;2065;49.790;9.620;2022-07-18T08:24:32;27.70;29.60
4103;DHT22;2065;49.790;9.620;2022-07-18T08:31:31;28.20;29.40
4103;DHT22;2065;49.790;9.620;2022-07-18T08:33:58;28.50;29.10
4103;DHT22;2065;49.790;9.620;2022-07-18T08:40:33;28.80;29.10
4103;DHT22;2065;49.790;9.620;2022-07-18T08:43:01;29.10;28.50
4103;DHT22;2065;49.790;9.620;2022-07-18T08:45:28;29.20;27.60
4103;DHT22;2065;49.790;9.620;2022-07-18T08:47:55;29.40;27.80
4103;DHT22;2065;49.790;9.620;2022-07-18T08:51:12;29.60;28.80
4103;DHT22;2065;49.790;9.620;2022-07-18T08:54:28;29.70;27.00
4103;DHT22;2065;49.790;9.620;2022-07-18T08:57:45;29.80;27.70
4103;DHT22;2065;49.790;9.620;2022-07-18T09:01:02;30.10;27.70
4103;DHT22;2065;49.790;9.620;2022-07-18T09:03:29;30.20;25.80
4103;DHT22;2065;49.790;9.620;2022-07-18T09:10:05;30.60;25.00
4103;DHT22;2065;49.790;9.620;2022-07-18T09:12:33;30.60;24.80
4103;DHT22;2065;49.790;9.620;2022-07-18T09:15:07;30.70;24.60
4103;DHT22;2065;49.790;9.620;2022-07-18T09:17:35;30.90;24.50
4103;DHT22;2065;49.790;9.620;2022-07-18T09:20:05;31.00;25.30
4103;DHT22;2065;49.790;9.620;2022-07-18T09:23:48;31.30;23.80
4103;DHT22;2065;49.790;9.620;2022-07-18T09:26:37;31.50;23.20
4103;DHT22;2065;49.790;9.620;2022-07-18T09:38:09;31.80;22.40
4103;DHT22;2065;49.790;9.620;2022-07-18T09:40:38;32.10;22.10
4103;DHT22;2065;49.790;9.620;2022-07-18T09:43:07;32.10;21.50
4103;DHT22;2065;49.790;9.620;2022-07-18T09:45:36;32.20;21.70
4103;DHT22;2065;49.790;9.620;2022-07-18T09:48:28;32.50;21.60
4103;DHT22;2065;49.790;9.620;2022-07-18T09:50:56;32.50;20.70
4103;DHT22;2065;49.790;9.620;2022-07-18T09:53:27;32.80;20.40
4103;DHT22;2065;49.790;9.620;2022-07-18T09:56:22;33.00;21.00
4103;DHT22;2065;49.790;9.620;2022-07-18T09:58:50;33.10;19.80
4103;DHT22;2065;49.790;9.620;2022-07-18T10:01:18;33.20;19.20
4103;DHT22;2065;49.790;9.620;2022-07-18T10:03:45;33.40;19.80
4103;DHT22;2065;49.790;9.620;2022-07-18T10:06:15;33.30;19.10
4103;DHT22;2065;49.790;9.620;2022-07-18T10:08:43;33.20;19.00
4103;DHT22;2065;49.790;9.620;2022-07-18T10:11:11;33.30;20.10
4103;DHT22;2065;49.790;9.620;2022-07-18T10:13:38;33.80;19.10
4103;DHT22;2065;49.790;9.620;2022-07-18T10:16:31;34.10;18.80
4103;DHT22;2065;49.790;9.620;2022-07-18T10:18:57;33.90;18.30
4103;DHT22;2065;49.790;9.620;2022-07-18T10:21:25;34.10;18.00
4103;DHT22;2065;49.790;9.620;2022-07-18T10:24:00;34.00;18.40
4103;DHT22;2065;49.790;9.620;2022-07-18T10:27:13;34.10;18.50
4103;DHT22;2065;49.790;9.620;2022-07-18T10:30:07;34.50;18.60
4103;DHT22;2065;49.790;9.620;2022-07-18T10:32:58;34.70;19.00
4103;DHT22;2065;49.790;9.620;2022-07-18T10:39:05;35.50;18.30
4103;DHT22;2065;49.790;9.620;2022-07-18T10:41:33;35.90;17.60
4103;DHT22;2065;49.790;9.620;2022-07-18T10:44:34;35.90;17.50
4103;DHT22;2065;49.790;9.620;2022-07-18T10:47:07;35.70;17.10
4103;DHT22;2065;49.790;9.620;2022-07-18T10:50:03;35.80;17.60
4103;DHT22;2065;49.790;9.620;2022-07-18T10:52:58;35.70;17.70
4103;DHT22;2065;49.790;9.620;2022-07-18T11:03:05;35.60;17.30
4103;DHT22;2065;49.790;9.620;2022-07-18T11:05:33;36.10;18.30
4103;DHT22;2065;49.790;9.620;2022-07-18T11:08:21;36.30;17.90
4103;DHT22;2065;49.790;9.620;2022-07-18T11:11:10;36.50;17.60
4103;DHT22;2065;49.790;9.620;2022-07-18T11:17:04;36.40;16.60
4103;DHT22;2065;49.790;9.620;2022-07-18T11:19:32;36.20;17.40
4103;DHT22;2065;49.790;9.620;2022-07-18T11:21:59;36.30;17.10
4103;DHT22;2065;49.790;9.620;2022-07-18T11:24:27;36.40;17.50
4103;DHT22;2065;49.790;9.620;2022-07-18T11:26:54;36.20;15.70
4103;DHT22;2065;49.790;9.620;2022-07-18T11:29:21;36.10;17.20
4103;DHT22;2065;49.790;9.620;2022-07-18T11:31:49;36.30;16.30
4103;DHT22;2065;49.790;9.620;2022-07-18T11:34:17;35.80;17.00
4103;DHT22;2065;49.790;9.620;2022-07-18T11:36:46;36.10;17.70
4103;DHT22;2065;49.790;9.620;2022-07-18T11:39:14;36.50;17.10
4103;DHT22;2065;49.790;9.620;2022-07-18T11:41:42;36.70;17.60
4103;DHT22;2065;49.790;9.620;2022-07-18T11:44:33;36.90;16.20
4103;DHT22;2065;49.790;9.620;2022-07-18T11:47:02;37.10;16.30
4103;DHT22;2065;49.790;9.620;2022-07-18T11:49:29;36.80;15.70
4103;DHT22;2065;49.790;9.620;2022-07-18T11:51:58;37.10;16.90
4103;DHT22;2065;49.790;9.620;2022-07-18T11:54:25;37.40;16.20
4103;DHT22;2065;49.790;9.620;2022-07-18T11:56:54;37.50;16.00
4103;DHT22;2065;49.790;9.620;2022-07-18T11:59:22;37.50;15.60
4103;DHT22;2065;49.790;9.620;2022-07-18T12:01:50;37.20;15.40
4103;DHT22;2065;49.790;9.620;2022-07-18T12:04:20;37.10;15.90
4103;DHT22;2065;49.790;9.620;2022-07-18T12:11:10;37.10;15.60
4103;DHT22;2065;49.790;9.620;2022-07-18T12:13:46;37.30;16.10
4103;DHT22;2065;49.790;9.620;2022-07-18T12:16:28;37.40;15.90
4103;DHT22;2065;49.790;9.620;2022-07-18T12:18:57;37.70;16.30
4103;DHT22;2065;49.790;9.620;2022-07-18T12:21:38;37.50;14.70
4103;DHT22;2065;49.790;9.620;2022-07-18T12:34:55;37.40;15.40
4103;DHT22;2065;49.790;9.620;2022-07-18T12:37:23;37.70;15.50
4103;DHT22;2065;49.790;9.620;2022-07-18T12:39:56;37.70;15.80
4103;DHT22;2065;49.790;9.620;2022-07-18T12:42:31;37.60;15.70
4103;DHT22;2065;49.790;9.620;2022-07-18T12:44:58;37.50;16.50
4103;DHT22;2065;49.790;9.620;2022-07-18T12:47:26;37.30;15.50
4103;DHT22;2065;49.790;9.620;2022-07-18T12:50:19;37.30;15.90
4103;DHT22;2065;49.790;9.620;2022-07-18T12:52:46;37.40;16.30
4103;DHT22;2065;49.790;9.620;2022-07-18T12:55:13;37.70;15.60
4103;DHT22;2065;49.790;9.620;2022-07-18T12:57:39;38.00;16.00
4103;DHT22;2065;49.790;9.620;2022-07-18T13:00:32;37.90;15.80
4103;DHT22;2065;49.790;9.620;2022-07-18T13:02:59;38.00;14.80
4103;DHT22;2065;49.790;9.620;2022-07-18T13:05:28;38.00;16.40
4103;DHT22;2065;49.790;9.620;2022-07-18T13:07:56;38.10;15.30
4103;DHT22;2065;49.790;9.620;2022-07-18T13:10:23;37.80;15.20
4103;DHT22;2065;49.790;9.620;2022-07-18T13:12:50;37.80;15.10
4103;DHT22;2065;49.790;9.620;2022-07-18T13:15:17;37.80;14.80
4103;DHT22;2065;49.790;9.620;2022-07-18T13:17:46;37.90;14.70
4103;DHT22;2065;49.790;9.620;2022-07-18T13:20:14;37.90;15.20
4103;DHT22;2065;49.790;9.620;2022-07-18T13:22:43;38.00;15.40
4103;DHT22;2065;49.790;9.620;2022-07-18T13:25:10;37.90;14.60
4103;DHT22;2065;49.790;9.620;2022-07-18T13:35:51;37.90;15.90
4103;DHT22;2065;49.790;9.620;2022-07-18T13:38:19;38.30;15.20
4103;DHT22;2065;49.790;9.620;2022-07-18T13:40:46;38.10;15.10
4103;DHT22;2065;49.790;9.620;2022-07-18T13:43:13;38.30;15.20
4103;DHT22;2065;49.790;9.620;2022-07-18T13:45:40;38.40;15.40
4103;DHT22;2065;49.790;9.620;2022-07-18T13:48:07;38.60;15.10
4103;DHT22;2065;49.790;9.620;2022-07-18T13:50:34;38.60;14.50
4103;DHT22;2065;49.790;9.620;2022-07-18T13:53:01;38.50;15.20
4103;DHT22;2065;49.790;9.620;2022-07-18T13:55:29;38.70;14.90
4103;DHT22;2065;49.790;9.620;2022-07-18T13:57:56;38.40;14.50
4103;DHT22;2065;49.790;9.620;2022-07-18T14:00:23;38.50;15.90
4103;DHT22;2065;49.790;9.620;2022-07-18T14:02:50;38.80;15.60
4103;DHT22;2065;49.790;9.620;2022-07-18T14:05:17;38.90;14.40
4103;DHT22;2065;49.790;9.620;2022-07-18T14:07:45;38.80;14.60
4103;DHT22;2065;49.790;9.620;2022-07-18T14:10:15;38.40;14.80
4103;DHT22;2065;49.790;9.620;2022-07-18T14:12:43;38.30;14.80
4103;DHT22;2065;49.790;9.620;2022-07-18T14:15:11;38.20;14.50
4103;DHT22;2065;49.790;9.620;2022-07-18T14:17:38;38.20;16.50
4103;DHT22;2065;49.790;9.620;2022-07-18T14:20:07;38.40;14.70
4103;DHT22;2065;49.790;9.620;2022-07-18T14:22:34;38.70;15.00
4103;DHT22;2065;49.790;9.620;2022-07-18T14:29:09;38.80;15.10
4103;DHT22;2065;49.790;9.620;2022-07-18T14:31:36;38.80;14.80
4103;DHT22;2065;49.790;9.620;2022-07-18T14:34:03;38.80;15.00
4103;DHT22;2065;49.790;9.620;2022-07-18T14:36:55;38.70;14.70
4103;DHT22;2065;49.790;9.620;2022-07-18T14:39:22;38.70;14.90
4103;DHT22;2065;49.790;9.620;2022-07-18T14:41:49;38.80;15.40
4103;DHT22;2065;49.790;9.620;2022-07-18T14:44:17;38.90;15.20
4103;DHT22;2065;49.790;9.620;2022-07-18T14:46:44;39.00;14.90
4103;DHT22;2065;49.790;9.620;2022-07-18T14:49:11;38.50;14.70
4103;DHT22;2065;49.790;9.620;2022-07-18T14:51:38;38.50;15.10
4103;DHT22;2065;49.790;9.620;2022-07-18T14:54:05;38.70;15.60
4103;DHT22;2065;49.790;9.620;2022-07-18T14:56:34;38.80;15.20
4103;DHT22;2065;49.790;9.620;2022-07-18T14:59:01;38.80;14.60
4103;DHT22;2065;49.790;9.620;2022-07-18T15:01:31;38.40;14.60
4103;DHT22;2065;49.790;9.620;2022-07-18T15:03:58;38.30;14.80
4103;DHT22;2065;49.790;9.620;2022-07-18T15:06:25;38.40;15.40
4103;DHT22;2065;49.790;9.620;2022-07-18T15:08:52;38.40;14.30
4103;DHT22;2065;49.790;9.620;2022-07-18T15:11:19;38.30;15.00
4103;DHT22;2065;49.790;9.620;2022-07-18T15:13:49;38.40;15.20
4103;DHT22;2065;49.790;9.620;2022-07-18T15:16:16;38.70;15.00
4103;DHT22;2065;49.790;9.620;2022-07-18T15:26:58;38.70;15.40
4103;DHT22;2065;49.790;9.620;2022-07-18T15:37:41;38.50;15.00
4103;DHT22;2065;49.790;9.620;2022-07-18T15:40:09;38.50;15.20
4103;DHT22;2065;49.790;9.620;2022-07-18T15:42:37;38.40;14.80
4103;DHT22;2065;49.790;9.620;2022-07-18T15:45:05;38.40;14.80
4103;DHT22;2065;49.790;9.620;2022-07-18T15:47:32;38.40;15.30
4103;DHT22;2065;49.790;9.620;2022-07-18T15:49:59;38.40;15.70
4103;DHT22;2065;49.790;9.620;2022-07-18T15:52:26;38.40;15.10
4103;DHT22;2065;49.790;9.620;2022-07-18T15:55:42;38.40;15.60
4103;DHT22;2065;49.790;9.620;2022-07-18T15:58:59;38.50;15.00
4103;DHT22;2065;49.790;9.620;2022-07-18T16:01:26;38.40;14.80
4103;DHT22;2065;49.790;9.620;2022-07-18T16:03:53;38.10;15.40
4103;DHT22;2065;49.790;9.620;2022-07-18T16:06:20;37.90;15.10
4103;DHT22;2065;49.790;9.620;2022-07-18T16:08:47;37.90;15.40
4103;DHT22;2065;49.790;9.620;2022-07-18T16:11:14;38.00;15.60
4103;DHT22;2065;49.790;9.620;2022-07-18T16:13:41;37.90;15.80
4103;DHT22;2065;49.790;9.620;2022-07-18T16:16:10;37.90;15.50
4103;DHT22;2065;49.790;9.620;2022-07-18T16:18:37;37.70;15.40
4103;DHT22;2065;49.790;9.620;2022-07-18T16:29:18;37.70;15.50
4103;DHT22;2065;49.790;9.620;2022-07-18T16:35:54;37.70;16.00
4103;DHT22;2065;49.790;9.620;2022-07-18T16:38:22;37.80;15.90
4103;DHT22;2065;49.790;9.620;2022-07-18T16:40:50;37.80;15.70
4103;DHT22;2065;49.790;9.620;2022-07-18T16:43:17;37.70;15.90
4103;DHT22;2065;49.790;9.620;2022-07-18T16:45:45;37.80;15.90
4103;DHT22;2065;49.790;9.620;2022-07-18T16:48:13;37.80;16.20
4103;DHT22;2065;49.790;9.620;2022-07-18T16:54:50;37.70;16.10
4103;DHT22;2065;49.790;9.620;2022-07-18T17:01:49;37.50;15.50
4103;DHT22;2065;49.790;9.620;2022-07-18T17:04:17;37.50;16.40
4103;DHT22;2065;49.790;9.620;2022-07-18T17:06:44;37.60;16.50
4103;DHT22;2065;49.790;9.620;2022-07-18T17:09:11;37.60;15.30
4103;DHT22;2065;49.790;9.620;2022-07-18T17:17:27;37.70;16.00
4103;DHT22;2065;49.790;9.620;2022-07-18T17:19:55;37.60;16.20
4103;DHT22;2065;49.790;9.620;2022-07-18T17:26:56;37.70;16.70
4103;DHT22;2065;49.790;9.620;2022-07-18T17:29:23;37.50;16.40
4103;DHT22;2065;49.790;9.620;2022-07-18T17:31:50;37.40;16.00
4103;DHT22;2065;49.790;9.620;2022-07-18T17:34:19;37.40;16.30
4103;DHT22;2065;49.790;9.620;2022-07-18T17:45:04;37.30;16.60
4103;DHT22;2065;49.790;9.620;2022-07-18T17:47:31;37.30;17.20
4103;DHT22;2065;49.790;9.620;2022-07-18T17:50:06;37.10;16.20
4103;DHT22;2065;49.790;9.620;2022-07-18T17:52:34;37.10;16.60
4103;DHT22;2065;49.790;9.620;2022-07-18T18:03:15;37.10;17.10
4103;DHT22;2065;49.790;9.620;2022-07-18T18:05:44;37.00;16.50
4103;DHT22;2065;49.790;9.620;2022-07-18T18:08:14;37.10;17.00
4103;DHT22;2065;49.790;9.620;2022-07-18T18:10:42;37.10;17.00
4103;DHT22;2065;49.790;9.620;2022-07-18T18:13:09;36.90;16.50
4103;DHT22;2065;49.790;9.620;2022-07-18T18:15:36;36.90;16.60
4103;DHT22;2065;49.790;9.620;2022-07-18T18:18:28;36.90;16.70
4103;DHT22;2065;49.790;9.620;2022-07-18T18:20:56;36.80;16.90
4103;DHT22;2065;49.790;9.620;2022-07-18T18:23:25;36.70;17.10
4103;DHT22;2065;49.790;9.620;2022-07-18T18:26:17;36.50;17.20
4103;DHT22;2065;49.790;9.620;2022-07-18T18:28:44;36.50;17.50
4103;DHT22;2065;49.790;9.620;2022-07-18T18:32:01;36.50;17.60
4103;DHT22;2065;49.790;9.620;2022-07-18T18:34:45;36.60;17.90
4103;DHT22;2065;49.790;9.620;2022-07-18T18:37:13;36.50;18.00
4103;DHT22;2065;49.790;9.620;2022-07-18T18:39:40;36.50;18.80
4103;DHT22;2065;49.790;9.620;2022-07-18T18:42:33;36.50;18.70
4103;DHT22;2065;49.790;9.620;2022-07-18T18:45:01;36.40;19.10
4103;DHT22;2065;49.790;9.620;2022-07-18T18:50:44;36.20;19.10
4103;DHT22;2065;49.790;9.620;2022-07-18T18:53:13;36.10;19.50
4103;DHT22;2065;49.790;9.620;2022-07-18T18:55:40;36.00;19.40
4103;DHT22;2065;49.790;9.620;2022-07-18T18:58:31;35.90;19.80
4103;DHT22;2065;49.790;9.620;2022-07-18T19:00:58;35.80;19.70
4103;DHT22;2065;49.790;9.620;2022-07-18T19:03:25;35.70;19.70
4103;DHT22;2065;49.790;9.620;2022-07-18T19:06:18;35.60;19.60
4103;DHT22;2065;49.790;9.620;2022-07-18T19:08:46;35.40;20.10
4103;DHT22;2065;49.790;9.620;2022-07-18T19:11:13;35.40;20.00
4103;DHT22;2065;49.790;9.620;2022-07-18T19:13:40;35.30;20.10
4103;DHT22;2065;49.790;9.620;2022-07-18T19:16:56;35.20;20.10
4103;DHT22;2065;49.790;9.620;2022-07-18T19:19:23;35.00;20.00
4103;DHT22;2065;49.790;9.620;2022-07-18T19:21:50;34.90;20.30
4103;DHT22;2065;49.790;9.620;2022-07-18T19:24:18;34.80;20.40
4103;DHT22;2065;49.790;9.620;2022-07-18T19:26:46;34.70;20.70
4103;DHT22;2065;49.790;9.620;2022-07-18T19:29:13;34.50;20.50
4103;DHT22;2065;49.790;9.620;2022-07-18T19:31:40;34.40;20.50
4103;DHT22;2065;49.790;9.620;2022-07-18T19:34:33;34.30;20.50
4103;DHT22;2065;49.790;9.620;2022-07-18T19:37:00;34.20;20.50
4103;DHT22;2065;49.790;9.620;2022-07-18T19:39:28;34.10;21.00
4103;DHT22;2065;49.790;9.620;2022-07-18T19:42:21;33.90;20.60
4103;DHT22;2065;49.790;9.620;2022-07-18T19:44:48;33.70;20.90
4103;DHT22;2065;49.790;9.620;2022-07-18T19:47:15;33.70;21.50
4103;DHT22;2065;49.790;9.620;2022-07-18T19:49:42;33.60;21.20
4103;DHT22;2065;49.790;9.620;2022-07-18T19:52:58;33.50;21.70
4103;DHT22;2065;49.790;9.620;2022-07-18T19:55:26;33.40;21.60
4103;DHT22;2065;49.790;9.620;2022-07-18T19:57:53;33.30;21.80
4103;DHT22;2065;49.790;9.620;2022-07-18T20:00:21;33.20;22.40
4103;DHT22;2065;49.790;9.620;2022-07-18T20:02:49;33.10;22.80
4103;DHT22;2065;49.790;9.620;2022-07-18T20:05:16;33.00;23.00
4103;DHT22;2065;49.790;9.620;2022-07-18T20:11:03;32.90;23.10
4103;DHT22;2065;49.790;9.620;2022-07-18T20:13:30;32.80;22.70
4103;DHT22;2065;49.790;9.620;2022-07-18T20:15:57;32.70;22.50
4103;DHT22;2065;49.790;9.620;2022-07-18T20:18:48;32.60;22.90
4103;DHT22;2065;49.790;9.620;2022-07-18T20:22:04;32.50;22.90
4103;DHT22;2065;49.790;9.620;2022-07-18T20:24:55;32.30;23.50
4103;DHT22;2065;49.790;9.620;2022-07-18T20:27:24;32.30;23.40
4103;DHT22;2065;49.790;9.620;2022-07-18T20:29:51;32.20;24.00
4103;DHT22;2065;49.790;9.620;2022-07-18T20:32:18;32.10;24.00
4103;DHT22;2065;49.790;9.620;2022-07-18T20:34:45;32.00;24.00
4103;DHT22;2065;49.790;9.620;2022-07-18T20:37:12;32.00;24.50
4103;DHT22;2065;49.790;9.620;2022-07-18T20:39:39;31.90;24.50
4103;DHT22;2065;49.790;9.620;2022-07-18T20:42:33;31.80;24.60
4103;DHT22;2065;49.790;9.620;2022-07-18T20:45:00;31.70;24.50
4103;DHT22;2065;49.790;9.620;2022-07-18T20:48:41;31.60;24.90
4103;DHT22;2065;49.790;9.620;2022-07-18T20:51:08;31.40;24.50
4103;DHT22;2065;49.790;9.620;2022-07-18T20:56:52;31.10;25.10
4103;DHT22;2065;49.790;9.620;2022-07-18T20:59:21;31.10;25.50
4103;DHT22;2065;49.790;9.620;2022-07-18T21:01:48;30.90;24.90
4103;DHT22;2065;49.790;9.620;2022-07-18T21:04:15;30.50;25.30
4103;DHT22;2065;49.790;9.620;2022-07-18T21:06:42;30.40;25.90
4103;DHT22;2065;49.790;9.620;2022-07-18T21:09:09;30.20;26.00
4103;DHT22;2065;49.790;9.620;2022-07-18T21:11:36;30.30;26.10
4103;DHT22;2065;49.790;9.620;2022-07-18T21:14:03;30.00;26.00
4103;DHT22;2065;49.790;9.620;2022-07-18T21:16:56;30.10;26.40
4103;DHT22;2065;49.790;9.620;2022-07-18T21:19:23;29.80;26.80
4103;DHT22;2065;49.790;9.620;2022-07-18T21:21:50;29.10;27.50
4103;DHT22;2065;49.790;9.620;2022-07-18T21:24:17;28.70;28.20
4103;DHT22;2065;49.790;9.620;2022-07-18T21:26:44;28.30;28.60
4103;DHT22;2065;49.790;9.620;2022-07-18T21:29:11;28.20;28.90
4103;DHT22;2065;49.790;9.620;2022-07-18T21:31:37;28.60;29.00
4103;DHT22;2065;49.790;9.620;2022-07-18T21:34:06;28.90;28.50
4103;DHT22;2065;49.790;9.620;2022-07-18T21:36:57;29.20;28.60
4103;DHT22;2065;49.790;9.620;2022-07-18T21:42:42;29.50;28.50
4103;DHT22;2065;49.790;9.620;2022-07-18T21:45:10;29.60;28.60